Time;durP1;ratioP1;P1;durP2;ratioP2;P2;SDS_P1;SDS_P2;PMS_P1;PMS_P2;Temp;Humidity;BMP_temperature;BMP_pressure;BME280_temperature;BME280_humidity;BME280_pressure;Samples;Min_cycle;Max_cycle;Signal;HPM_P1;HPM_P2
2021/10/05 00:01:47;;;;;;;4.78;2.88;;;12.10;99.90;;;;;;5004174;28;20058;-86
2021/10/05 00:04:15;;;;;;;5.05;4.05;;;12.10;99.90;;;;;;5006214;28;20136;-86
2021/10/05 00:06:42;;;;;;;4.78;3.00;;;12.00;99.90;;;;;;4987923;28;20472;-86
2021/10/05 00:09:09;;;;;;;5.05;2.78;;;12.00;99.90;;;;;;5005378;28;20053;-86
2021/10/05 00:11:36;;;;;;;4.65;4.25;;;12.00;99.90;;;;;;5007910;28;20049;-87
2021/10/05 00:14:03;;;;;;;6.53;3.85;;;12.00;99.90;;;;;;5004509;28;20033;-86
2021/10/05 00:16:31;;;;;;;4.65;3.97;;;12.00;99.90;;;;;;5007179;28;20049;-86
2021/10/05 00:18:58;;;;;;;5.40;3.42;;;11.90;99.90;;;;;;5005975;28;20066;-86
2021/10/05 00:21:25;;;;;;;4.60;4.13;;;11.90;99.90;;;;;;5005079;28;20049;-86
2021/10/05 00:23:53;;;;;;;8.75;3.42;;;11.90;99.90;;;;;;4989568;28;20505;-86
2021/10/05 00:26:19;;;;;;;6.00;4.43;;;11.90;99.90;;;;;;4989694;28;20096;-86
2021/10/05 00:28:46;;;;;;;4.97;4.20;;;11.90;99.90;;;;;;5004392;28;20046;-86
2021/10/05 00:31:13;;;;;;;4.30;3.70;;;11.90;99.90;;;;;;4987928;28;20454;-86
2021/10/05 00:33:41;;;;;;;7.45;4.95;;;11.90;99.90;;;;;;5005911;28;20066;-86
2021/10/05 00:36:08;;;;;;;10.00;5.47;;;11.90;99.90;;;;;;5010760;28;20046;-86
2021/10/05 00:38:35;;;;;;;6.95;5.20;;;11.90;99.90;;;;;;4988818;28;20184;-86
2021/10/05 00:41:02;;;;;;;15.85;5.65;;;11.90;99.90;;;;;;5005379;28;20050;-86
2021/10/05 00:43:30;;;;;;;10.52;5.45;;;11.90;99.90;;;;;;5005904;28;20120;-86
2021/10/05 00:45:57;;;;;;;8.25;5.93;;;11.90;99.90;;;;;;4989213;28;20120;-87
2021/10/05 00:48:24;;;;;;;9.63;6.38;;;11.90;99.90;;;;;;5005466;28;20053;-86
2021/10/05 00:50:51;;;;;;;8.13;6.13;;;11.90;99.90;;;;;;4989693;28;20060;-87
2021/10/05 00:53:19;;;;;;;14.73;8.13;;;11.90;99.90;;;;;;4985982;28;20110;-86
2021/10/05 00:55:46;;;;;;;12.23;6.55;;;11.90;99.90;;;;;;5007584;28;20139;-87
2021/10/05 00:58:13;;;;;;;12.35;7.07;;;11.90;99.90;;;;;;4987773;28;20104;-86
2021/10/05 01:00:40;;;;;;;20.52;7.82;;;11.90;99.90;;;;;;5004833;28;20052;-86
2021/10/05 01:03:07;;;;;;;7.72;5.78;;;11.90;99.90;;;;;;4984984;28;20149;-86
2021/10/05 01:05:35;;;;;;;18.85;6.60;;;11.90;99.90;;;;;;4993775;28;20480;-86
2021/10/05 01:08:02;;;;;;;12.65;6.43;;;11.90;99.90;;;;;;4989702;28;20081;-86
2021/10/05 01:10:30;;;;;;;8.55;6.03;;;11.90;99.90;;;;;;5004531;28;20050;-86
2021/10/05 01:12:57;;;;;;;9.35;5.82;;;11.80;99.90;;;;;;4989178;28;20077;-86
2021/10/05 01:15:26;;;;;;;6.85;5.90;;;11.80;99.90;;;;;;5000709;28;20173;-87
2021/10/05 01:17:57;;;;;;;10.57;6.32;;;11.80;99.90;;;;;;5007007;28;20141;-87
2021/10/05 01:20:24;;;;;;;12.40;6.60;;;11.80;99.90;;;;;;4971030;28;20101;-86
2021/10/05 01:22:51;;;;;;;9.15;7.00;;;11.80;99.90;;;;;;4988936;28;20050;-86
2021/10/05 01:25:19;;;;;;;11.52;8.10;;;11.80;99.90;;;;;;4985668;28;20185;-86
2021/10/05 01:27:48;;;;;;;13.27;8.52;;;11.80;99.90;;;;;;5007094;28;20042;-87
2021/10/05 01:30:18;;;;;;;15.03;8.17;;;11.80;99.90;;;;;;4981433;28;20058;-87
2021/10/05 01:32:46;;;;;;;11.48;8.30;;;11.80;99.90;;;;;;4989190;28;20081;-86
2021/10/05 01:35:14;;;;;;;9.68;8.23;;;11.80;99.90;;;;;;4999970;28;20054;-86
2021/10/05 01:37:41;;;;;;;10.57;7.85;;;11.80;99.90;;;;;;4998675;28;20141;-86
2021/10/05 01:40:10;;;;;;;9.77;6.70;;;11.80;99.90;;;;;;5005260;28;20380;-86
2021/10/05 01:42:38;;;;;;;19.02;8.57;;;11.90;99.90;;;;;;4971774;28;20049;-86
2021/10/05 01:45:06;;;;;;;10.27;7.10;;;11.90;99.90;;;;;;4985384;28;20080;-86
2021/10/05 01:47:33;;;;;;;12.45;8.82;;;11.90;99.90;;;;;;5004707;28;20050;-86
2021/10/05 01:50:00;;;;;;;13.40;9.38;;;11.90;99.90;;;;;;4983424;28;20041;-87
2021/10/05 01:52:29;;;;;;;21.40;10.05;;;11.90;99.90;;;;;;5005622;28;20073;-87
2021/10/05 01:54:56;;;;;;;22.00;10.80;;;11.90;99.90;;;;;;4972107;28;20053;-87
2021/10/05 01:57:24;;;;;;;12.75;10.27;;;11.90;99.90;;;;;;4969470;28;20073;-87
2021/10/05 01:59:51;;;;;;;17.33;10.65;;;11.90;99.90;;;;;;4985857;28;20065;-87
2021/10/05 02:02:18;;;;;;;17.30;9.88;;;12.00;99.90;;;;;;5001050;28;20100;-87
2021/10/05 02:04:45;;;;;;;13.55;10.30;;;12.00;99.90;;;;;;5000775;28;20088;-87
2021/10/05 02:07:14;;;;;;;21.42;9.60;;;12.00;99.90;;;;;;4996662;28;20060;-87
2021/10/05 02:09:47;;;;;;;17.42;11.63;;;12.00;99.90;;;;;;5002868;28;20125;-86
2021/10/05 02:12:18;;;;;;;13.75;10.80;;;12.00;99.90;;;;;;5003055;28;20053;-87
2021/10/05 02:14:46;;;;;;;18.05;10.27;;;12.00;99.90;;;;;;5002680;28;20100;-87
2021/10/05 02:17:15;;;;;;;18.40;10.90;;;12.00;99.90;;;;;;5003919;28;20112;-87
2021/10/05 02:19:42;;;;;;;11.85;9.02;;;12.10;99.90;;;;;;4986716;28;20057;-86
2021/10/05 02:22:09;;;;;;;14.45;10.25;;;12.10;99.90;;;;;;5003965;28;21001;-86
2021/10/05 02:24:41;;;;;;;19.85;11.00;;;12.10;99.90;;;;;;5005021;28;20049;-86
2021/10/05 02:27:10;;;;;;;22.40;11.63;;;12.00;99.90;;;;;;4985343;28;20046;-86
2021/10/05 02:29:38;;;;;;;24.48;12.25;;;12.00;99.90;;;;;;5002711;28;20065;-86
2021/10/05 02:32:07;;;;;;;12.85;9.48;;;12.00;99.90;;;;;;5004917;28;20050;-87
2021/10/05 02:34:35;;;;;;;16.63;11.45;;;12.10;99.90;;;;;;4988451;28;20082;-86
2021/10/05 02:37:02;;;;;;;15.95;11.35;;;12.00;99.90;;;;;;4999467;28;21662;-86
2021/10/05 02:39:30;;;;;;;14.00;10.27;;;12.00;99.90;;;;;;4986150;28;20046;-86
2021/10/05 02:41:57;;;;;;;15.85;10.95;;;12.10;99.90;;;;;;5003094;28;20451;-86
2021/10/05 02:44:24;;;;;;;12.93;11.07;;;12.10;99.90;;;;;;5001537;28;20077;-86
2021/10/05 02:46:51;;;;;;;14.20;10.82;;;12.10;99.90;;;;;;4998253;28;20161;-86
2021/10/05 02:49:18;;;;;;;19.35;10.60;;;12.10;99.90;;;;;;4996612;28;20050;-86
2021/10/05 02:51:45;;;;;;;23.20;11.00;;;12.10;99.90;;;;;;4987095;28;20551;-86
2021/10/05 02:54:12;;;;;;;22.13;11.13;;;12.00;99.90;;;;;;4991137;28;20046;-86
2021/10/05 02:56:39;;;;;;;18.95;11.30;;;12.00;99.90;;;;;;4986341;28;20030;-86
2021/10/05 02:59:06;;;;;;;20.63;11.73;;;12.10;99.90;;;;;;5002712;28;20085;-87
2021/10/05 03:01:33;;;;;;;22.10;13.32;;;12.10;99.90;;;;;;4986862;28;20062;-87
2021/10/05 03:04:00;;;;;;;23.90;14.02;;;12.10;99.90;;;;;;5004396;28;20522;-87
2021/10/05 03:06:27;;;;;;;15.93;11.45;;;12.10;99.90;;;;;;4986142;28;20046;-87
2021/10/05 03:08:55;;;;;;;23.88;13.10;;;12.10;99.90;;;;;;5003678;28;20436;-87
2021/10/05 03:11:22;;;;;;;22.08;13.15;;;12.10;99.90;;;;;;4985615;28;20042;-87
2021/10/05 03:13:49;;;;;;;21.10;11.32;;;12.10;99.90;;;;;;5002514;28;20631;-87
2021/10/05 03:16:16;;;;;;;17.67;11.88;;;12.10;99.90;;;;;;4971431;28;20049;-87
2021/10/05 03:18:45;;;;;;;20.73;11.98;;;12.10;99.90;;;;;;5003457;28;20041;-86
2021/10/05 03:21:12;;;;;;;20.02;12.43;;;12.10;99.90;;;;;;5002265;28;20050;-87
2021/10/05 03:23:39;;;;;;;16.50;11.07;;;12.10;99.90;;;;;;5002220;28;20462;-87
2021/10/05 03:26:07;;;;;;;16.40;11.80;;;12.10;99.90;;;;;;4997136;28;20107;-86
2021/10/05 03:28:33;;;;;;;20.45;11.43;;;12.10;99.90;;;;;;5003244;28;20034;-86
2021/10/05 03:31:00;;;;;;;17.58;12.07;;;12.10;99.90;;;;;;5000794;28;20143;-86
2021/10/05 03:33:27;;;;;;;23.10;14.10;;;12.10;99.90;;;;;;5002216;28;20053;-87
2021/10/05 03:35:55;;;;;;;19.42;12.15;;;12.10;99.90;;;;;;4986824;28;20119;-86
2021/10/05 03:38:22;;;;;;;22.05;13.20;;;12.10;99.90;;;;;;4987778;28;20112;-86
2021/10/05 03:40:51;;;;;;;20.40;13.85;;;12.10;99.90;;;;;;5007285;28;20046;-86
2021/10/05 03:43:18;;;;;;;18.63;13.55;;;12.10;99.90;;;;;;4989862;28;20593;-87
2021/10/05 03:45:45;;;;;;;20.20;12.27;;;12.20;99.90;;;;;;4973762;28;20042;-87
2021/10/05 03:48:13;;;;;;;17.77;13.95;;;12.20;99.90;;;;;;5002922;28;20046;-86
2021/10/05 03:50:40;;;;;;;18.83;12.95;;;12.20;99.90;;;;;;4980681;28;20396;-86
2021/10/05 03:53:07;;;;;;;29.77;14.90;;;12.20;99.90;;;;;;5003149;28;20074;-86
2021/10/05 03:55:34;;;;;;;22.05;14.65;;;12.20;99.90;;;;;;5007129;28;20703;-86
2021/10/05 03:58:01;;;;;;;21.38;13.18;;;12.20;99.90;;;;;;5005374;28;20096;-86
2021/10/05 04:00:28;;;;;;;21.73;14.35;;;12.20;99.90;;;;;;5003972;28;20048;-86
2021/10/05 04:02:56;;;;;;;25.10;15.90;;;12.20;99.90;;;;;;5006808;28;20160;-86
2021/10/05 04:05:24;;;;;;;24.58;16.73;;;12.20;99.90;;;;;;5004442;28;20054;-86
2021/10/05 04:07:51;;;;;;;18.70;13.95;;;12.20;99.90;;;;;;4987991;28;20053;-86
2021/10/05 04:10:18;;;;;;;42.78;16.05;;;12.20;99.90;;;;;;5003733;28;20050;-86
2021/10/05 04:12:45;;;;;;;25.98;15.65;;;12.20;99.90;;;;;;5003129;28;20057;-86
2021/10/05 04:15:12;;;;;;;22.52;13.73;;;12.20;99.90;;;;;;5003198;28;20105;-86
2021/10/05 04:17:39;;;;;;;22.15;12.93;;;12.20;99.90;;;;;;5001269;28;20387;-86
2021/10/05 04:20:07;;;;;;;21.23;14.20;;;12.20;99.90;;;;;;4985697;28;20460;-85
2021/10/05 04:22:35;;;;;;;23.75;14.63;;;12.20;99.90;;;;;;4988252;28;20046;-86
2021/10/05 04:25:05;;;;;;;18.85;14.25;;;12.10;99.90;;;;;;4986820;28;20668;-86
2021/10/05 04:27:34;;;;;;;23.77;15.38;;;12.10;99.90;;;;;;4984511;28;20050;-86
2021/10/05 04:30:01;;;;;;;23.08;15.70;;;12.20;99.90;;;;;;4989787;28;20124;-86
2021/10/05 04:32:28;;;;;;;24.70;16.05;;;12.10;99.90;;;;;;4987857;28;20088;-86
2021/10/05 04:34:55;;;;;;;31.90;15.88;;;12.10;99.90;;;;;;5007147;28;20388;-86
2021/10/05 04:37:22;;;;;;;24.73;16.35;;;12.10;99.90;;;;;;4996511;28;20050;-86
2021/10/05 04:39:49;;;;;;;25.98;16.30;;;12.20;99.90;;;;;;4973542;28;20137;-86
2021/10/05 04:42:16;;;;;;;29.67;17.33;;;12.20;99.90;;;;;;4986532;28;20061;-86
2021/10/05 04:44:43;;;;;;;27.30;15.80;;;12.20;99.90;;;;;;4970295;28;20049;-86
2021/10/05 04:47:10;;;;;;;28.00;17.05;;;12.20;99.90;;;;;;4977594;28;20383;-86
2021/10/05 04:49:38;;;;;;;27.08;16.17;;;12.20;99.90;;;;;;4973128;28;20040;-86
2021/10/05 04:52:05;;;;;;;26.00;15.75;;;12.20;99.90;;;;;;4988575;28;20041;-86
2021/10/05 04:54:32;;;;;;;36.78;17.77;;;12.20;99.90;;;;;;5002126;28;20112;-86
2021/10/05 04:56:59;;;;;;;25.30;16.45;;;12.20;99.90;;;;;;4984978;28;20899;-86
2021/10/05 04:59:26;;;;;;;26.92;15.50;;;12.20;99.90;;;;;;4987769;28;20130;-86
2021/10/05 05:01:53;;;;;;;28.75;16.00;;;12.20;99.90;;;;;;4986849;28;20038;-86
2021/10/05 05:04:20;;;;;;;28.98;17.00;;;12.20;99.90;;;;;;4988153;28;20042;-86
2021/10/05 05:06:47;;;;;;;31.23;17.45;;;12.20;99.90;;;;;;4989949;28;20200;-86
2021/10/05 05:09:14;;;;;;;28.08;17.40;;;12.20;99.90;;;;;;5000563;28;20089;-86
2021/10/05 05:11:41;;;;;;;24.85;17.30;;;12.20;99.90;;;;;;5006330;28;20112;-84
2021/10/05 05:14:10;;;;;;;35.33;18.63;;;12.20;99.90;;;;;;4995577;28;20073;-85
2021/10/05 05:16:40;;;;;;;22.98;15.25;;;12.30;99.90;;;;;;4992294;28;20491;-85
2021/10/05 05:19:08;;;;;;;30.00;19.08;;;12.20;99.90;;;;;;5001730;28;20042;-84
2021/10/05 05:21:36;;;;;;;28.75;19.15;;;12.20;99.90;;;;;;5003454;28;20046;-84
2021/10/05 05:24:03;;;;;;;21.92;15.40;;;12.20;99.90;;;;;;5002779;28;20056;-85
2021/10/05 05:26:30;;;;;;;27.92;18.58;;;12.30;99.90;;;;;;5002627;28;20073;-85
2021/10/05 05:28:57;;;;;;;27.75;16.88;;;12.30;99.90;;;;;;5000378;28;20096;-85
2021/10/05 05:31:24;;;;;;;30.92;19.00;;;12.30;99.90;;;;;;5000081;28;20470;-84
2021/10/05 05:33:53;;;;;;;31.33;18.13;;;12.30;99.90;;;;;;4985713;28;20170;-86
2021/10/05 05:36:20;;;;;;;29.77;17.10;;;12.30;99.90;;;;;;4984241;28;20080;-85
2021/10/05 05:38:46;;;;;;;25.88;17.25;;;12.30;99.90;;;;;;4999790;28;20050;-85
2021/10/05 05:41:14;;;;;;;27.50;15.93;;;12.30;99.90;;;;;;4996128;28;20049;-85
2021/10/05 05:43:41;;;;;;;26.48;17.40;;;12.20;99.90;;;;;;4998591;28;20049;-85
2021/10/05 05:46:08;;;;;;;27.70;16.30;;;12.20;99.90;;;;;;5002249;28;20057;-85
2021/10/05 05:48:35;;;;;;;23.42;15.13;;;12.20;99.90;;;;;;5002903;28;20058;-85
2021/10/05 05:51:02;;;;;;;25.77;15.85;;;12.20;99.90;;;;;;4984708;28;20054;-84
2021/10/05 05:53:29;;;;;;;25.77;15.18;;;12.20;99.90;;;;;;4987808;28;20042;-85
2021/10/05 05:55:56;;;;;;;28.38;16.13;;;12.20;99.90;;;;;;5001420;28;20053;-85
2021/10/05 05:58:23;;;;;;;22.60;13.85;;;12.20;99.90;;;;;;4990000;28;20038;-84
2021/10/05 06:00:50;;;;;;;20.35;13.40;;;12.20;99.90;;;;;;4996240;28;20129;-85
2021/10/05 06:03:17;;;;;;;23.45;15.60;;;12.20;99.90;;;;;;4984819;28;20077;-85
2021/10/05 06:05:44;;;;;;;22.48;14.70;;;12.20;99.90;;;;;;4984976;28;20056;-85
2021/10/05 06:08:12;;;;;;;22.38;14.88;;;12.20;99.90;;;;;;4995290;28;20066;-85
2021/10/05 06:10:39;;;;;;;21.38;13.10;;;12.20;99.90;;;;;;4966202;28;20048;-84
2021/10/05 06:13:06;;;;;;;17.23;12.93;;;12.20;99.90;;;;;;4971777;28;20065;-84
2021/10/05 06:15:35;;;;;;;16.33;11.50;;;12.20;99.90;;;;;;4986559;28;20130;-84
2021/10/05 06:18:02;;;;;;;15.43;11.32;;;12.20;99.90;;;;;;4995594;28;20044;-84
2021/10/05 06:20:29;;;;;;;16.20;12.40;;;12.20;99.90;;;;;;5004278;28;20054;-84
2021/10/05 06:22:57;;;;;;;20.42;12.98;;;12.20;99.90;;;;;;4992118;28;20736;-85
2021/10/05 06:25:27;;;;;;;23.20;14.32;;;12.20;99.90;;;;;;4981789;28;20046;-84
2021/10/05 06:27:56;;;;;;;19.00;12.68;;;12.20;99.90;;;;;;4979289;28;20456;-84
2021/10/05 06:30:25;;;;;;;19.05;14.55;;;12.20;99.90;;;;;;4979124;28;20049;-84
2021/10/05 06:32:53;;;;;;;20.02;13.13;;;12.20;99.90;;;;;;4999538;28;20048;-85
2021/10/05 06:35:24;;;;;;;34.83;14.27;;;12.20;99.90;;;;;;4972284;28;20756;-86
2021/10/05 06:37:54;;;;;;;;;;;12.20;99.90;;;;;;4997226;28;20049;-84
2021/10/05 06:40:26;;;;;;;20.48;12.05;;;12.20;99.90;;;;;;4991076;28;19930;-84
2021/10/05 06:42:53;;;;;;;15.57;11.57;;;12.20;99.90;;;;;;4991738;28;20068;-84
2021/10/05 06:45:21;;;;;;;18.77;12.10;;;12.20;99.90;;;;;;5001174;28;20081;-85
2021/10/05 06:47:48;;;;;;;15.95;10.40;;;12.20;99.90;;;;;;4995716;28;20050;-84
2021/10/05 06:50:15;;;;;;;16.52;9.48;;;12.10;99.90;;;;;;5000360;28;20046;-84
2021/10/05 06:52:43;;;;;;;13.95;9.35;;;12.10;99.90;;;;;;4999714;28;20096;-84
2021/10/05 06:55:11;;;;;;;13.85;8.13;;;12.10;99.90;;;;;;5001839;28;20077;-84
2021/10/05 06:57:38;;;;;;;11.70;7.88;;;12.20;99.90;;;;;;5003686;28;20068;-84
2021/10/05 07:00:11;;;;;;;9.75;6.28;;;12.10;99.90;;;;;;4997342;28;20062;-84
2021/10/05 07:02:39;;;;;;;8.55;5.70;;;12.10;99.90;;;;;;4997304;28;20049;-84
2021/10/05 07:05:08;;;;;;;13.57;5.53;;;12.10;99.90;;;;;;4985289;28;20050;-84
2021/10/05 07:07:43;;;;;;;9.20;5.30;;;12.10;99.90;;;;;;4987540;28;20045;-84
2021/10/05 07:10:12;;;;;;;10.20;5.53;;;12.10;99.90;;;;;;5000540;28;20049;-84
2021/10/05 07:12:40;;;;;;;7.28;5.30;;;12.10;99.90;;;;;;5005681;28;20116;-84
2021/10/05 07:15:08;;;;;;;8.18;5.65;;;12.10;99.90;;;;;;5003330;28;20057;-84
2021/10/05 07:17:36;;;;;;;10.93;7.35;;;12.10;99.90;;;;;;5000091;28;20042;-85
2021/10/05 07:20:05;;;;;;;7.28;5.63;;;12.10;99.90;;;;;;5006182;28;20061;-85
2021/10/05 07:22:33;;;;;;;8.43;6.40;;;12.20;99.90;;;;;;4986089;28;20686;-85
2021/10/05 07:25:00;;;;;;;14.85;6.60;;;12.20;99.90;;;;;;4988412;28;20213;-85
2021/10/05 07:27:27;;;;;;;9.38;6.20;;;12.20;99.90;;;;;;4993780;28;20458;-85
2021/10/05 07:29:54;;;;;;;8.90;5.75;;;12.20;99.90;;;;;;5008085;28;20058;-85
2021/10/05 07:32:21;;;;;;;5.47;4.75;;;12.30;99.90;;;;;;5009013;28;20116;-85
2021/10/05 07:34:48;;;;;;;7.65;4.03;;;12.30;99.90;;;;;;5007575;28;20061;-84
2021/10/05 07:37:15;;;;;;;8.57;5.45;;;12.30;99.90;;;;;;4988032;28;20046;-84
2021/10/05 07:39:46;;;;;;;14.05;4.68;;;12.30;99.90;;;;;;4999516;28;20403;-84
2021/10/05 07:42:13;;;;;;;6.38;4.15;;;12.30;99.90;;;;;;5009665;28;20038;-84
2021/10/05 07:44:41;;;;;;;4.68;3.92;;;12.30;99.90;;;;;;5001066;28;20786;-84
2021/10/05 07:47:08;;;;;;;6.35;2.95;;;12.30;99.90;;;;;;5006483;28;20151;-84
2021/10/05 07:49:36;;;;;;;6.70;3.75;;;12.30;99.90;;;;;;5001503;28;20046;-84
2021/10/05 07:52:04;;;;;;;6.00;2.88;;;12.40;99.90;;;;;;4990547;28;20057;-84
2021/10/05 07:54:31;;;;;;;5.10;3.13;;;12.40;99.90;;;;;;4983503;28;20046;-84
2021/10/05 07:56:58;;;;;;;7.07;2.88;;;12.40;99.90;;;;;;5006821;28;20070;-84
2021/10/05 07:59:25;;;;;;;10.88;2.28;;;12.40;99.90;;;;;;5005507;28;20418;-84
2021/10/05 08:01:53;;;;;;;3.55;2.08;;;12.40;99.90;;;;;;5006279;28;20661;-84
2021/10/05 08:04:21;;;;;;;6.32;3.30;;;12.40;99.90;;;;;;5003258;28;20928;-84
2021/10/05 08:06:48;;;;;;;4.30;1.65;;;12.40;99.90;;;;;;5008525;28;20244;-84
2021/10/05 08:09:15;;;;;;;4.28;1.38;;;12.40;99.90;;;;;;4987950;28;20050;-84
2021/10/05 08:11:42;;;;;;;2.50;1.88;;;12.40;99.90;;;;;;5001436;28;20100;-84
2021/10/05 08:14:09;;;;;;;8.27;1.55;;;12.40;99.90;;;;;;5006838;28;20061;-85
2021/10/05 08:16:37;;;;;;;5.40;1.40;;;12.30;99.90;;;;;;5008794;28;20053;-84
2021/10/05 08:19:04;;;;;;;5.28;1.65;;;12.30;99.90;;;;;;5007359;28;20605;-84
2021/10/05 08:21:32;;;;;;;3.45;1.10;;;12.30;99.90;;;;;;5009633;28;20096;-84
2021/10/05 08:24:00;;;;;;;2.78;1.55;;;12.30;99.90;;;;;;5008170;28;20045;-84
2021/10/05 08:26:27;;;;;;;1.98;1.33;;;12.30;99.90;;;;;;5006799;28;20471;-84
2021/10/05 08:28:54;;;;;;;1.92;1.30;;;12.20;99.90;;;;;;5008777;28;20046;-84
2021/10/05 08:31:21;;;;;;;5.22;1.35;;;12.20;99.90;;;;;;5003854;28;20061;-84
2021/10/05 08:33:49;;;;;;;2.85;0.95;;;12.20;99.90;;;;;;5006087;28;20042;-84
2021/10/05 08:36:19;;;;;;;3.72;2.13;;;12.20;99.90;;;;;;5008222;28;20121;-85
2021/10/05 08:38:46;;;;;;;4.00;1.42;;;12.20;99.90;;;;;;5009841;28;20104;-84
2021/10/05 08:41:14;;;;;;;4.60;1.20;;;12.20;99.90;;;;;;4988595;28;20058;-84
2021/10/05 08:43:42;;;;;;;4.88;1.83;;;12.30;99.90;;;;;;4991570;28;20058;-84
2021/10/05 08:46:11;;;;;;;2.85;1.08;;;12.20;99.90;;;;;;5007093;28;20056;-84
2021/10/05 08:48:39;;;;;;;5.63;1.20;;;12.20;99.90;;;;;;5006824;28;20041;-84
2021/10/05 08:51:07;;;;;;;3.97;1.35;;;12.30;99.90;;;;;;5004218;28;20046;-84
2021/10/05 08:53:37;;;;;;;1.33;0.90;;;12.20;99.90;;;;;;5006784;28;20046;-84
2021/10/05 08:56:06;;;;;;;2.72;1.20;;;12.30;99.90;;;;;;4990494;28;20042;-84
2021/10/05 08:58:35;;;;;;;3.35;1.27;;;12.30;99.90;;;;;;4990258;28;20050;-84
2021/10/05 09:01:11;;;;;;;5.28;2.00;;;12.30;99.90;;;;;;5005679;28;20108;-84
2021/10/05 09:03:46;;;;;;;2.30;2.05;;;12.30;99.90;;;;;;5006884;28;20050;-84
2021/10/05 09:06:14;;;;;;;2.40;2.20;;;12.20;99.90;;;;;;4999403;28;20189;-84
2021/10/05 09:08:43;;;;;;;2.85;1.90;;;12.20;99.90;;;;;;5007218;28;20449;-84
2021/10/05 09:11:11;;;;;;;3.35;1.85;;;12.20;99.90;;;;;;5006070;28;20076;-84
2021/10/05 09:13:42;;;;;;;3.90;1.65;;;12.20;99.90;;;;;;5007391;28;20041;-84
2021/10/05 09:16:15;;;;;;;;;;;12.10;99.90;;;;;;5009261;28;20086;-84
2021/10/05 09:19:03;;;;;;;1.88;1.20;;;12.10;99.90;;;;;;4993297;28;19944;-84
2021/10/05 09:21:32;;;;;;;4.00;1.08;;;12.10;99.90;;;;;;5006297;28;20390;-84
2021/10/05 09:24:08;;;;;;;2.30;0.77;;;12.20;99.90;;;;;;4989480;28;20451;-84
2021/10/05 09:26:49;;;;;;;2.08;0.77;;;12.20;99.90;;;;;;4986529;28;20050;-84
2021/10/05 09:29:37;;;;;;;2.65;0.47;;;12.20;99.90;;;;;;5002065;28;20054;-84
2021/10/05 09:32:08;;;;;;;0.90;0.68;;;12.20;99.90;;;;;;4990884;28;20046;-84
2021/10/05 09:34:50;;;;;;;0.50;0.40;;;12.20;99.90;;;;;;5006848;28;20041;-84
2021/10/05 09:37:35;;;;;;;0.50;0.40;;;12.20;99.90;;;;;;5005124;28;20065;-84
2021/10/05 09:40:11;;;;;;;1.83;0.52;;;12.20;99.90;;;;;;5006209;28;20049;-84
2021/10/05 09:42:40;;;;;;;1.25;0.93;;;12.20;99.90;;;;;;4988186;28;20057;-84
2021/10/05 09:45:16;;;;;;;0.38;0.20;;;12.20;99.90;;;;;;5005140;28;20050;-84
2021/10/05 09:47:54;;;;;;;1.13;0.65;;;12.20;99.90;;;;;;5005957;28;20414;-84
2021/10/05 09:50:26;;;;;;;1.20;0.60;;;12.20;99.90;;;;;;4989835;28;20046;-84
2021/10/05 09:53:01;;;;;;;3.40;1.13;;;12.20;99.90;;;;;;5004596;28;20119;-84
2021/10/05 09:55:31;;;;;;;1.08;0.60;;;12.10;99.90;;;;;;5005061;28;20050;-84
2021/10/05 09:57:58;;;;;;;1.60;0.73;;;12.10;99.90;;;;;;5007035;28;20088;-84
2021/10/05 10:00:28;;;;;;;2.90;0.90;;;12.10;99.90;;;;;;5005026;28;20133;-84
2021/10/05 10:02:55;;;;;;;1.17;0.60;;;12.10;99.90;;;;;;4991010;28;20065;-84
2021/10/05 10:05:27;;;;;;;2.05;0.77;;;12.10;99.90;;;;;;5005551;28;20668;-83
2021/10/05 10:07:56;;;;;;;2.92;0.70;;;12.10;99.90;;;;;;4973360;28;20049;-84
2021/10/05 10:10:26;;;;;;;2.00;0.60;;;12.00;99.90;;;;;;5005718;28;20054;-84
2021/10/05 10:12:56;;;;;;;1.10;0.50;;;12.00;99.90;;;;;;5007498;28;20054;-84
2021/10/05 10:15:30;;;;;;;0.40;0.40;;;12.00;99.90;;;;;;4998498;28;20065;-84
2021/10/05 10:18:09;;;;;;;2.22;0.50;;;12.00;99.90;;;;;;5000527;28;20050;-83
2021/10/05 10:21:01;;;;;;;2.17;2.00;;;12.00;99.90;;;;;;4999621;28;20104;-83
2021/10/05 10:24:00;;;;;;;0.63;0.47;;;12.00;99.90;;;;;;4982835;28;20049;-84
2021/10/05 10:26:27;;;;;;;1.85;0.40;;;12.00;99.90;;;;;;4988539;28;20045;-84
2021/10/05 10:28:58;;;;;;;0.75;0.40;;;11.90;99.90;;;;;;5004875;28;20510;-83
2021/10/05 10:31:33;;;;;;;1.17;0.68;;;12.00;99.90;;;;;;5002649;28;20053;-83
2021/10/05 10:34:00;;;;;;;1.25;0.50;;;12.00;99.90;;;;;;5002343;28;20108;-84
2021/10/05 10:36:29;;;;;;;2.28;0.90;;;12.00;99.90;;;;;;5000838;28;20385;-84
2021/10/05 10:39:16;;;;;;;2.35;0.50;;;12.00;99.90;;;;;;5000270;28;20410;-83
2021/10/05 10:41:53;;;;;;;1.38;1.27;;;11.90;99.90;;;;;;4986576;28;20058;-84
2021/10/05 10:44:39;;;;;;;3.72;1.33;;;11.90;99.90;;;;;;5004610;28;20042;-84
2021/10/05 10:47:11;;;;;;;2.63;1.35;;;12.00;99.90;;;;;;4982975;28;20034;-84
2021/10/05 10:49:39;;;;;;;10.35;6.53;;;12.00;99.90;;;;;;5004860;28;20077;-83
2021/10/05 10:52:07;;;;;;;14.13;8.45;;;11.90;99.90;;;;;;5005482;28;20510;-83
2021/10/05 10:54:34;;;;;;;29.08;14.35;;;11.90;99.90;;;;;;4987570;28;20096;-83
2021/10/05 10:57:04;;;;;;;37.22;22.58;;;11.90;99.90;;;;;;4991009;28;20050;-83
2021/10/05 10:59:32;;;;;;;54.78;33.55;;;11.90;99.90;;;;;;5002605;28;21335;-83
2021/10/05 11:02:02;;;;;;;53.72;34.08;;;11.90;99.90;;;;;;4975132;28;20046;-83
2021/10/05 11:04:31;;;;;;;43.35;27.05;;;11.80;99.90;;;;;;4999052;28;20129;-83
2021/10/05 11:06:59;;;;;;;31.80;21.48;;;11.80;99.90;;;;;;4986492;28;20041;-83
2021/10/05 11:09:34;;;;;;;44.05;22.92;;;11.70;99.90;;;;;;4993928;28;20046;-83
2021/10/05 11:12:07;;;;;;;44.10;22.70;;;11.70;99.90;;;;;;5003235;28;20080;-83
2021/10/05 11:14:40;;;;;;;32.45;20.98;;;11.70;99.90;;;;;;5002790;28;20045;-83
2021/10/05 11:17:09;;;;;;;40.72;23.50;;;11.70;99.90;;;;;;5000877;28;20403;-83
2021/10/05 11:19:39;;;;;;;36.05;21.17;;;11.70;99.90;;;;;;5005494;28;20046;-83
2021/10/05 11:22:16;;;;;;;40.10;25.20;;;11.70;99.90;;;;;;4972686;28;20089;-83
2021/10/05 11:24:46;;;;;;;33.30;24.30;;;11.60;99.90;;;;;;5004764;28;20108;-83
2021/10/05 11:27:18;;;;;;;35.45;22.90;;;11.60;99.90;;;;;;4934879;28;20131;-82
2021/10/05 11:29:46;;;;;;;20.15;14.85;;;11.60;99.90;;;;;;321811;28;10023023;-83
2021/10/05 11:32:17;;;;;;;18.90;12.50;;;11.60;99.90;;;;;;4977579;28;20148;-83
2021/10/05 11:34:45;;;;;;;19.25;13.63;;;11.60;99.90;;;;;;4999864;28;20088;-83
2021/10/05 11:37:15;;;;;;;25.33;14.70;;;11.60;99.90;;;;;;4985953;28;20562;-83
2021/10/05 11:39:45;;;;;;;17.60;12.25;;;11.50;99.90;;;;;;4985646;28;20057;-83
2021/10/05 11:42:23;;;;;;;18.30;11.77;;;11.60;99.90;;;;;;4999211;28;20112;-82
2021/10/05 11:44:51;;;;;;;14.35;10.57;;;11.60;99.90;;;;;;5003080;28;20054;-83
2021/10/05 11:47:22;;;;;;;8.10;6.43;;;11.60;99.90;;;;;;4988154;28;20053;-82
2021/10/05 11:50:10;;;;;;;6.93;5.30;;;11.50;99.90;;;;;;5002707;28;20824;-82
2021/10/05 11:52:42;;;;;;;5.03;2.90;;;11.50;99.90;;;;;;4989487;28;20676;-83
2021/10/05 11:55:09;;;;;;;4.57;2.72;;;11.50;99.90;;;;;;4997401;28;20062;-83
2021/10/05 11:57:37;;;;;;;1.30;1.00;;;11.50;99.90;;;;;;5001201;28;20049;-83
2021/10/05 12:00:07;;;;;;;1.55;0.93;;;11.50;99.90;;;;;;4998891;28;20050;-83
2021/10/05 12:02:42;;;;;;;1.02;0.80;;;11.60;99.90;;;;;;4985752;28;20525;-83
2021/10/05 12:05:21;;;;;;;3.60;0.70;;;11.60;99.90;;;;;;5005528;28;20114;-82
2021/10/05 12:07:48;;;;;;;1.17;0.90;;;11.60;99.90;;;;;;4973943;28;20589;-82
2021/10/05 12:10:17;;;;;;;0.98;0.47;;;11.60;99.90;;;;;;5001728;28;20050;-82
2021/10/05 12:12:45;;;;;;;0.90;0.57;;;11.60;99.90;;;;;;5001479;28;20056;-83
2021/10/05 12:15:20;;;;;;;3.30;1.45;;;11.60;99.90;;;;;;4981888;28;20058;-82
2021/10/05 12:18:03;;;;;;;1.25;0.85;;;11.60;99.90;;;;;;4990375;28;20073;-82
2021/10/05 12:21:01;;;;;;;0.85;0.65;;;11.60;99.90;;;;;;5008559;28;20081;-82
2021/10/05 12:23:28;;;;;;;0.57;0.32;;;11.60;99.90;;;;;;5005209;28;20111;-83
2021/10/05 12:26:10;;;;;;;1.92;0.40;;;11.60;99.90;;;;;;4990577;28;20050;-83
2021/10/05 12:28:37;;;;;;;1.33;0.35;;;11.70;99.90;;;;;;5007577;28;20460;-83
2021/10/05 12:31:12;;;;;;;0.70;0.32;;;11.60;99.90;;;;;;4999576;28;20427;-83
2021/10/05 12:33:40;;;;;;;0.20;0.17;;;11.70;99.90;;;;;;4996327;28;20663;-83
2021/10/05 12:36:07;;;;;;;0.35;0.32;;;11.70;99.90;;;;;;5002223;28;20050;-82
2021/10/05 12:38:37;;;;;;;0.95;0.35;;;11.70;99.90;;;;;;4997511;28;20100;-82
2021/10/05 12:41:09;;;;;;;0.85;0.57;;;11.80;99.90;;;;;;4981494;28;20046;-82
2021/10/05 12:43:39;;;;;;;2.17;0.80;;;11.70;99.90;;;;;;5005944;28;20074;-83
2021/10/05 12:46:12;;;;;;;0.95;0.40;;;11.80;99.90;;;;;;5007440;28;20065;-82
2021/10/05 12:48:43;;;;;;;0.77;0.50;;;11.80;99.90;;;;;;5007250;28;20484;-82